CDT,Max TemperatureF,Mean TemperatureF,Min TemperatureF,Max Dew PointF,MeanDew PointF,Min DewpointF,Max Humidity, Mean Humidity, Min Humidity, Max Sea Level PressureIn, Mean Sea Level PressureIn, Min Sea Level PressureIn, Max VisibilityMiles, Mean VisibilityMiles, Min VisibilityMiles, Max Wind SpeedMPH, Mean Wind SpeedMPH, Max Gust SpeedMPH,PrecipitationIn, CloudCover, Events, WindDirDegrees
2013-5-1,86,82,71,79,74,70,94,79,70,29.91,29.84,29.80,7,6,4,22,15,24,0.95,5,Rain-Thunderstorm,135
2013-5-2,89,79,69,75,71,64,94,82,59,29.88,29.84,29.78,7,6,2,20,8,,0.00,5,Rain-Thunderstorm,178
2013-5-3,87,78,68,72,67,63,100,74,48,29.98,29.89,29.81,7,7,6,25,10,37,0.00,3,,312
2013-5-4,84,74,62,66,62,57,100,72,45,29.98,29.93,29.85,7,7,7,17,5,,0.00,3,,309
2013-5-5,80,70,59,64,60,57,94,70,51,30.02,29.97,29.91,7,7,7,12,5,21,0.00,2,,5
2013-5-6,80,73,66,66,65,64,94,74,58,30.06,30.02,29.97,7,7,7,12,3,,0.00,5,,21
2013-5-7,84,74,64,68,65,63,94,70,51,30.07,30.02,29.98,7,7,7,14,5,,0.00,2,,96
2013-5-8,84,78,71,70,68,66,88,71,55,30.11,30.05,29.98,7,7,7,15,7,,0.00,3,,113
2013-5-9,86,82,77,72,71,70,78,72,62,30.08,30.04,29.99,7,7,6,14,8,,0.00,4,,117
2013-5-10,86,82,78,75,74,72,89,76,66,30.03,29.99,29.93,7,7,7,21,12,,0.00,4,,133
2013-5-11,86,82,78,73,73,72,83,73,66,30.01,29.97,29.93,7,7,7,24,14,,0.00,4,,134
2013-5-12,86,82,78,73,72,72,83,73,62,30.03,29.98,29.93,7,7,7,18,10,,0.00,5,,114
2013-5-13,86,80,75,73,72,70,89,73,62,30.10,30.05,29.98,7,7,7,9,6,,0.00,4,,75
2013-5-14,86,82,77,73,71,68,83,72,58,30.13,30.08,30.04,7,7,7,13,7,,0.00,4,,54
2013-5-15,86,77,68,73,70,66,94,75,58,30.09,30.04,29.98,7,7,5,14,5,,0.00,3,,77
2013-5-16,86,80,73,73,72,70,89,75,62,30.01,29.97,29.90,7,7,7,17,8,,0.00,4,,124
2013-5-17,86,80,75,73,73,70,89,74,58,30.01,29.97,29.94,7,7,7,17,8,,0.00,3,,122
2013-5-18,86,82,78,75,74,73,89,77,66,30.01,29.98,29.93,7,7,7,21,10,,0.00,5,,116
2013-5-19,87,84,80,75,75,73,84,76,62,30.00,29.95,29.91,7,7,7,18,11,,0.00,5,,125
2013-5-20,87,84,80,75,75,73,84,75,66,29.97,29.93,29.88,7,7,7,17,12,,0.00,5,,124
2013-5-21,87,84,80,75,75,73,84,75,62,29.94,29.88,29.84,7,7,7,17,11,,0.00,4,,117
2013-5-22,87,84,80,75,75,73,84,75,62,29.92,29.87,29.83,7,7,7,17,14,,0.00,5,,130
2013-5-23,87,84,80,77,75,73,84,77,62,29.98,29.94,29.88,7,7,7,16,11,,0.00,6,,117
2013-5-24,87,84,80,77,75,73,89,76,62,30.05,30.00,29.93,7,7,7,14,9,,0.00,5,,87
2013-5-25,87,82,78,75,74,72,84,75,58,30.08,30.04,30.00,7,7,7,14,7,,0.00,5,,70
2013-5-26,87,82,77,73,73,72,89,73,58,30.06,30.02,29.98,7,7,7,17,8,,0.00,5,,83
2013-5-27,86,83,80,75,74,72,79,75,66,30.02,29.98,29.93,7,7,7,12,8,,0.00,8,,87
2013-5-28,82,78,73,75,73,70,94,84,74,30.01,29.95,29.91,7,6,2,20,8,,0.25,8,Rain,122
2013-5-29,84,80,75,75,73,70,89,79,66,29.94,29.90,29.85,7,7,6,22,9,,0.00,6,,125
2013-5-30,87,82,77,77,76,73,94,80,66,29.93,29.89,29.83,7,6,6,22,12,,0.00,4,,120
2013-5-31,86,82,78,77,76,73,89,81,70,29.94,29.90,29.85,7,7,6,17,11,,0.00,5,,112